createdAt,value
2022-12-17T00:01:26.262Z,5.19
2022-12-17T00:04:33.460Z,5.12
2022-12-17T00:07:40.366Z,5.10
2022-12-17T00:10:47.443Z,5.17
2022-12-17T00:13:54.314Z,5.15
2022-12-17T00:17:03.033Z,5.16
2022-12-17T00:20:09.957Z,5.20
2022-12-17T00:23:20.200Z,5.19
2022-12-17T00:26:27.606Z,5.21
2022-12-17T00:29:34.630Z,5.21
2022-12-17T00:32:42.822Z,5.24
2022-12-17T00:35:51.248Z,5.16
2022-12-17T00:38:58.909Z,5.25
2022-12-17T00:42:05.966Z,5.22
2022-12-17T00:45:12.418Z,5.14
2022-12-17T00:48:20.570Z,5.19
2022-12-17T00:51:27.382Z,5.02
2022-12-17T00:54:34.489Z,5.18
2022-12-17T00:57:41.629Z,5.19
2022-12-17T01:00:48.868Z,5.14
2022-12-17T01:03:57.054Z,5.20
2022-12-17T01:07:04.029Z,5.12
2022-12-17T01:10:11.319Z,5.17
2022-12-17T01:13:18.124Z,5.14
2022-12-17T01:16:28.141Z,5.09
2022-12-17T01:19:36.354Z,5.09
2022-12-17T01:22:45.238Z,5.06
2022-12-17T01:25:51.773Z,5.03
2022-12-17T01:28:58.944Z,5.00
2022-12-17T01:32:05.538Z,4.99
2022-12-17T01:35:13.606Z,5.01
2022-12-17T01:38:20.643Z,4.95
2022-12-17T01:41:28.297Z,4.99
2022-12-17T01:45:06.770Z,5.00
2022-12-17T01:48:14.809Z,4.99
2022-12-17T01:51:24.401Z,4.94
2022-12-17T01:54:32.090Z,4.99
2022-12-17T01:57:38.788Z,5.07
2022-12-17T02:00:45.897Z,5.02
2022-12-17T02:03:52.754Z,5.12
2022-12-17T02:07:13.547Z,5.13
2022-12-17T02:10:36.946Z,5.03
2022-12-17T02:14:05.830Z,4.86
2022-12-17T02:17:19.232Z,4.99
2022-12-17T02:20:40.059Z,5.05
2022-12-17T02:24:00.775Z,5.05
2022-12-17T02:27:13.002Z,5.01
2022-12-17T02:30:25.320Z,5.08
2022-12-17T02:33:33.613Z,5.03
2022-12-17T02:36:41.207Z,5.03
2022-12-17T02:39:48.723Z,5.01
2022-12-17T02:42:57.501Z,4.95
2022-12-17T02:46:06.215Z,4.95
2022-12-17T02:49:13.429Z,4.91
2022-12-17T02:52:23.071Z,4.93
2022-12-17T02:55:30.189Z,4.97
2022-12-17T02:58:38.323Z,4.93
2022-12-17T03:01:44.938Z,4.88
2022-12-17T03:04:52.150Z,4.88
2022-12-17T03:07:59.199Z,4.92
2022-12-17T03:11:06.192Z,4.84
2022-12-17T03:14:14.263Z,4.74
2022-12-17T03:17:21.493Z,4.70
2022-12-17T03:20:29.875Z,4.73
2022-12-17T03:23:36.479Z,4.72
2022-12-17T03:26:43.771Z,4.75
2022-12-17T03:29:51.874Z,4.67
2022-12-17T03:32:58.645Z,4.72
2022-12-17T03:36:19.988Z,4.69
2022-12-17T03:39:27.009Z,4.72
2022-12-17T03:42:33.680Z,4.83
2022-12-17T03:45:41.799Z,4.80
2022-12-17T03:48:48.501Z,4.90
2022-12-17T03:51:54.971Z,4.90
2022-12-17T03:55:16.717Z,4.89
2022-12-17T03:58:23.286Z,4.86
2022-12-17T04:01:31.485Z,4.73
2022-12-17T04:04:47.020Z,4.95
2022-12-17T04:07:53.696Z,4.96
2022-12-17T04:11:00.636Z,4.92
2022-12-17T04:14:07.539Z,4.91
2022-12-17T04:17:15.737Z,4.92
2022-12-17T04:20:23.380Z,4.95
2022-12-17T04:23:30.260Z,5.05
2022-12-17T04:26:36.708Z,5.04
2022-12-17T04:29:43.235Z,5.06
2022-12-17T04:32:51.326Z,4.99
2022-12-17T04:35:54.448Z,5.03
2022-12-17T04:39:00.864Z,5.04
2022-12-17T04:42:07.834Z,5.10
2022-12-17T04:45:14.705Z,5.02
2022-12-17T04:48:25.490Z,5.05
2022-12-17T04:51:28.707Z,5.12
2022-12-17T04:54:35.057Z,5.11
2022-12-17T04:57:42.031Z,5.13
2022-12-17T05:00:48.935Z,5.19
2022-12-17T05:03:57.584Z,5.07
2022-12-17T05:07:04.367Z,5.14
2022-12-17T05:10:11.098Z,5.19
2022-12-17T05:13:18.618Z,4.96
2022-12-17T05:16:25.669Z,5.22
2022-12-17T05:19:42.326Z,5.24
2022-12-17T05:22:49.264Z,5.19
2022-12-17T05:25:56.078Z,5.20
2022-12-17T05:29:03.186Z,5.16
2022-12-17T05:32:10.447Z,5.18
2022-12-17T05:35:18.674Z,5.14
2022-12-17T05:38:28.441Z,5.13
2022-12-17T05:41:35.311Z,5.23
2022-12-17T05:44:42.259Z,5.12
2022-12-17T05:47:48.723Z,5.22
2022-12-17T05:50:56.781Z,5.20
2022-12-17T05:54:03.455Z,5.19
2022-12-17T05:57:09.896Z,5.12
2022-12-17T06:00:16.947Z,4.96
2022-12-17T06:03:24.423Z,5.16
2022-12-17T06:06:32.799Z,5.16
2022-12-17T06:09:40.305Z,5.19
2022-12-17T06:12:47.300Z,5.08
2022-12-17T06:15:54.337Z,5.15
2022-12-17T06:19:01.453Z,5.09
2022-12-17T06:22:09.864Z,5.20
2022-12-17T06:25:16.534Z,5.28
2022-12-17T06:28:23.639Z,5.25
2022-12-17T06:31:30.917Z,5.32
2022-12-17T06:34:37.559Z,5.33
2022-12-17T06:37:45.604Z,5.39
2022-12-17T06:40:52.589Z,5.35
2022-12-17T06:43:59.388Z,5.32
2022-12-17T06:47:06.353Z,5.28
2022-12-17T06:50:13.282Z,5.35
2022-12-17T06:53:25.649Z,5.22
2022-12-17T06:56:32.232Z,5.34
2022-12-17T06:59:39.176Z,5.28
2022-12-17T07:02:45.697Z,5.30
2022-12-17T07:05:53.078Z,5.21
2022-12-17T07:09:01.044Z,5.24
2022-12-17T07:12:08.179Z,5.22
2022-12-17T07:15:14.578Z,5.25
2022-12-17T07:18:23.355Z,5.23
2022-12-17T07:21:30.029Z,4.63
2022-12-17T07:24:38.111Z,5.24
2022-12-17T07:27:56.559Z,5.26
2022-12-17T07:31:03.595Z,5.21
2022-12-17T07:34:10.494Z,5.20
2022-12-17T07:37:28.519Z,5.12
2022-12-17T07:40:36.411Z,5.27
2022-12-17T07:43:43.622Z,5.25
2022-12-17T07:46:52.929Z,5.29
2022-12-17T07:49:59.748Z,5.20
2022-12-17T07:53:06.217Z,5.27
2022-12-17T07:56:22.688Z,5.22
2022-12-17T07:59:29.282Z,5.27
2022-12-17T08:02:35.890Z,5.27
2022-12-17T08:05:42.898Z,5.31
2022-12-17T08:08:49.484Z,5.07
2022-12-17T08:11:57.499Z,5.27
2022-12-17T08:15:04.249Z,5.26
2022-12-17T08:18:10.927Z,5.25
2022-12-17T08:21:17.938Z,5.27
2022-12-17T08:24:25.092Z,5.26
2022-12-17T08:27:33.255Z,5.19
2022-12-17T08:30:39.781Z,5.25
2022-12-17T08:33:46.972Z,5.17
2022-12-17T08:36:54.336Z,5.22
2022-12-17T08:40:01.374Z,5.18
2022-12-17T08:43:16.117Z,5.15
2022-12-17T08:46:23.127Z,5.14
2022-12-17T08:49:30.048Z,5.19
2022-12-17T08:52:37.000Z,5.18
2022-12-17T08:55:43.716Z,5.22
2022-12-17T08:58:57.173Z,5.20
2022-12-17T09:02:05.745Z,5.20
2022-12-17T09:05:12.521Z,5.13
2022-12-17T09:08:27.312Z,5.16
2022-12-17T09:11:34.385Z,5.12
2022-12-17T09:14:42.591Z,5.13
2022-12-17T09:17:49.537Z,5.21
2022-12-17T09:20:56.598Z,5.25
2022-12-17T09:24:03.593Z,5.25
2022-12-17T09:27:10.882Z,5.28
2022-12-17T09:30:19.290Z,5.32
2022-12-17T09:33:26.190Z,5.36
2022-12-17T09:36:33.113Z,5.40
2022-12-17T09:39:39.822Z,5.35
2022-12-17T09:42:59.862Z,5.51
2022-12-17T09:46:18.538Z,5.54
2022-12-17T09:49:36.543Z,5.49
2022-12-17T09:52:47.296Z,5.57
2022-12-17T09:56:04.926Z,5.65
2022-12-17T09:59:12.016Z,5.69
2022-12-17T10:02:32.256Z,5.84
2022-12-17T10:05:44.141Z,5.90
2022-12-17T10:08:51.093Z,6.01
2022-12-17T10:11:58.089Z,6.07
2022-12-17T10:15:04.546Z,6.11
2022-12-17T10:18:12.828Z,6.10
2022-12-17T10:21:21.071Z,6.16
2022-12-17T10:24:29.599Z,6.15
2022-12-17T10:27:39.041Z,6.14
2022-12-17T10:30:47.281Z,6.17
2022-12-17T10:33:59.107Z,6.15
2022-12-17T10:37:09.312Z,6.14
2022-12-17T10:40:19.727Z,6.18
2022-12-17T10:43:46.705Z,6.30
2022-12-17T10:46:53.907Z,6.27
2022-12-17T10:50:02.416Z,6.38
2022-12-17T10:53:15.864Z,6.31
2022-12-17T10:56:24.154Z,6.35
2022-12-17T10:59:32.091Z,6.30
2022-12-17T11:02:45.555Z,6.33
2022-12-17T11:05:59.680Z,6.37
2022-12-17T11:09:06.871Z,6.44
2022-12-17T11:12:13.854Z,6.45
2022-12-17T11:15:33.920Z,6.38
2022-12-17T11:18:46.560Z,6.42
2022-12-17T11:22:03.330Z,6.53
2022-12-17T11:25:21.539Z,6.51
2022-12-17T11:28:36.233Z,6.60
2022-12-17T11:32:05.211Z,6.70
2022-12-17T11:35:25.491Z,6.71
2022-12-17T11:38:48.279Z,6.83
2022-12-17T11:42:11.219Z,6.83
2022-12-17T11:45:23.892Z,6.85
2022-12-17T11:48:41.011Z,6.93
2022-12-17T11:51:59.667Z,6.91
2022-12-17T11:55:17.748Z,7.20
2022-12-17T11:58:35.105Z,8.16
2022-12-17T12:01:52.389Z,9.47
2022-12-17T12:05:25.090Z,10.59
2022-12-17T12:08:40.321Z,11.24
2022-12-17T12:11:56.585Z,11.66
2022-12-17T12:15:16.669Z,11.93
2022-12-17T12:18:29.408Z,11.84
2022-12-17T12:21:59.441Z,11.48
2022-12-17T12:25:31.322Z,10.85
2022-12-17T12:28:49.739Z,10.25
2022-12-17T12:32:03.317Z,9.60
2022-12-17T12:35:13.240Z,9.07
2022-12-17T12:38:21.325Z,8.90
2022-12-17T12:41:38.529Z,8.62
2022-12-17T12:44:56.576Z,8.41
2022-12-17T12:48:12.707Z,8.29
2022-12-17T12:51:33.722Z,8.15
2022-12-17T12:54:48.858Z,8.15
2022-12-17T12:57:59.183Z,8.14
2022-12-17T13:01:14.748Z,8.21
2022-12-17T13:04:41.908Z,8.23
2022-12-17T13:07:33.907Z,8.20
2022-12-17T13:10:30.966Z,8.22
2022-12-17T13:13:36.012Z,8.20
2022-12-17T13:16:51.078Z,8.26
2022-12-17T13:19:43.000Z,8.31
2022-12-17T13:22:34.756Z,8.22
2022-12-17T13:25:25.272Z,8.34
2022-12-17T13:28:30.882Z,8.28
2022-12-17T13:31:26.594Z,8.22
2022-12-17T13:34:27.210Z,8.11
2022-12-17T13:37:27.832Z,8.03
2022-12-17T13:40:35.193Z,7.91
2022-12-17T13:43:32.095Z,8.01
2022-12-17T13:46:24.045Z,8.02
2022-12-17T13:49:23.099Z,7.98
2022-12-17T13:52:20.262Z,7.96
2022-12-17T13:55:19.611Z,7.99
2022-12-17T13:58:27.492Z,7.96
2022-12-17T14:01:16.946Z,7.94
2022-12-17T14:04:07.375Z,7.90
2022-12-17T14:07:01.306Z,7.82
2022-12-17T14:09:51.100Z,7.83
2022-12-17T14:12:40.693Z,7.77
2022-12-17T14:15:34.311Z,7.74
2022-12-17T14:18:23.766Z,7.75
2022-12-17T14:21:13.300Z,7.69
2022-12-17T14:24:04.728Z,7.73
2022-12-17T14:26:56.419Z,7.71
2022-12-17T14:29:48.017Z,7.66
2022-12-17T14:32:38.362Z,7.62
2022-12-17T14:35:30.576Z,7.71
2022-12-17T14:38:37.122Z,7.71
2022-12-17T14:41:47.845Z,7.72
2022-12-17T14:44:39.700Z,7.62
2022-12-17T14:47:31.688Z,7.62
2022-12-17T14:50:31.332Z,7.56
2022-12-17T14:53:28.932Z,7.54
2022-12-17T14:56:25.037Z,7.44
2022-12-17T14:59:27.141Z,7.36
2022-12-17T15:02:26.423Z,7.38
2022-12-17T15:05:17.182Z,7.36
2022-12-17T15:08:07.263Z,7.31
2022-12-17T15:10:56.765Z,7.34
2022-12-17T15:13:49.129Z,7.32
2022-12-17T15:16:42.684Z,7.28
2022-12-17T15:19:32.645Z,7.23
2022-12-17T15:22:22.220Z,7.22
2022-12-17T15:25:14.154Z,7.20
2022-12-17T15:28:03.858Z,7.15
2022-12-17T15:30:53.309Z,7.12
2022-12-17T15:33:44.522Z,7.12
2022-12-17T15:36:34.534Z,7.03
2022-12-17T15:39:23.866Z,7.05
2022-12-17T15:42:30.660Z,7.05
2022-12-17T15:45:20.091Z,6.98
2022-12-17T15:48:09.558Z,6.93
2022-12-17T15:51:00.214Z,6.90
2022-12-17T15:53:49.774Z,6.80
2022-12-17T15:56:39.041Z,6.84
2022-12-17T15:59:28.376Z,6.90
2022-12-17T16:02:17.836Z,6.86
2022-12-17T16:05:08.519Z,6.84
2022-12-17T16:08:02.480Z,6.75
2022-12-17T16:10:52.169Z,6.72
2022-12-17T16:13:42.104Z,6.66
2022-12-17T16:16:31.982Z,6.53
2022-12-17T16:19:25.276Z,6.49
2022-12-17T16:22:14.689Z,6.36
2022-12-17T16:25:06.141Z,6.27
2022-12-17T16:27:55.606Z,6.20
2022-12-17T16:30:45.014Z,6.05
2022-12-17T16:33:36.043Z,5.96
2022-12-17T16:36:26.138Z,5.85
2022-12-17T16:39:18.980Z,5.77
2022-12-17T16:42:10.042Z,5.69
2022-12-17T16:44:59.448Z,5.58
2022-12-17T16:47:50.786Z,5.51
2022-12-17T16:50:40.173Z,5.53
2022-12-17T16:53:32.404Z,5.49
2022-12-17T16:56:24.714Z,5.43
2022-12-17T16:59:17.934Z,5.46
2022-12-17T17:02:13.203Z,5.44
2022-12-17T17:05:02.709Z,5.43
2022-12-17T17:07:52.178Z,5.40
2022-12-17T17:10:41.522Z,5.32
2022-12-17T17:13:30.794Z,5.33
2022-12-17T17:16:24.305Z,5.33
2022-12-17T17:19:13.813Z,5.24
2022-12-17T17:22:03.391Z,5.22
2022-12-17T17:24:53.611Z,5.13
2022-12-17T17:27:44.743Z,5.09
2022-12-17T17:30:34.302Z,4.99
2022-12-17T17:33:29.681Z,4.97
2022-12-17T17:36:22.225Z,4.87
2022-12-17T17:39:11.837Z,4.81
2022-12-17T17:42:01.356Z,4.76
2022-12-17T17:44:50.835Z,4.77
2022-12-17T17:47:40.340Z,4.69
2022-12-17T17:50:31.096Z,4.66
2022-12-17T17:53:20.371Z,4.58
2022-12-17T17:56:15.240Z,4.32
2022-12-17T17:59:07.256Z,4.39
2022-12-17T18:01:56.667Z,4.46
2022-12-17T18:04:46.096Z,4.34
2022-12-17T18:07:36.802Z,4.38
2022-12-17T18:10:26.111Z,4.36
2022-12-17T18:13:32.904Z,4.43
2022-12-17T18:16:23.903Z,4.41
2022-12-17T18:19:16.466Z,4.47
2022-12-17T18:22:05.826Z,4.40
2022-12-17T18:24:56.485Z,4.45
2022-12-17T18:27:45.873Z,4.03
2022-12-17T18:30:35.393Z,4.38
2022-12-17T18:33:25.321Z,4.34
2022-12-17T18:36:18.184Z,4.25
2022-12-17T18:39:12.278Z,4.23
2022-12-17T18:42:20.263Z,4.17
2022-12-17T18:45:10.522Z,4.22
2022-12-17T18:47:59.852Z,4.22
2022-12-17T18:50:49.125Z,4.21
2022-12-17T18:53:38.417Z,4.21
2022-12-17T18:56:59.469Z,4.19
2022-12-17T18:59:40.874Z,4.19
2022-12-17T19:02:30.495Z,4.16
2022-12-17T19:05:19.976Z,4.08
2022-12-17T19:08:09.243Z,4.03
2022-12-17T19:11:04.491Z,4.03
2022-12-17T19:13:53.812Z,3.95
2022-12-17T19:16:44.966Z,3.82
2022-12-17T19:19:34.687Z,3.78
2022-12-17T19:22:23.915Z,3.80
2022-12-17T19:25:13.548Z,3.68
2022-12-17T19:28:02.903Z,3.71
2022-12-17T19:30:58.390Z,3.65
2022-12-17T19:33:49.662Z,3.63
2022-12-17T19:36:40.880Z,3.70
2022-12-17T19:39:30.367Z,3.69
2022-12-17T19:42:25.808Z,3.77
2022-12-17T19:45:15.102Z,3.87
2022-12-17T19:48:04.502Z,3.92
2022-12-17T19:50:59.113Z,4.06
2022-12-17T19:53:49.628Z,4.14
2022-12-17T19:56:39.120Z,4.39
2022-12-17T19:59:28.473Z,4.45
2022-12-17T20:02:17.863Z,4.58
2022-12-17T20:05:08.985Z,4.71
2022-12-17T20:07:59.691Z,4.83
2022-12-17T20:10:49.071Z,4.86
2022-12-17T20:13:38.436Z,4.87
2022-12-17T20:16:27.840Z,4.97
2022-12-17T20:19:19.956Z,5.08
2022-12-17T20:22:09.304Z,5.23
2022-12-17T20:25:02.066Z,5.40
2022-12-17T20:27:51.450Z,5.48
2022-12-17T20:30:41.378Z,5.54
2022-12-17T20:33:31.544Z,5.69
2022-12-17T20:36:22.835Z,5.73
2022-12-17T20:39:13.293Z,5.76
2022-12-17T20:42:04.026Z,5.82
2022-12-17T20:44:53.758Z,5.88
2022-12-17T20:47:43.150Z,5.86
2022-12-17T20:50:32.687Z,5.85
2022-12-17T20:53:22.583Z,5.89
2022-12-17T20:56:14.818Z,5.91
2022-12-17T20:59:08.775Z,5.89
2022-12-17T21:01:58.215Z,5.86
2022-12-17T21:04:47.760Z,5.78
2022-12-17T21:07:37.290Z,5.77
2022-12-17T21:10:26.617Z,5.75
2022-12-17T21:13:31.380Z,5.72
2022-12-17T21:16:25.305Z,5.80
2022-12-17T21:19:21.546Z,5.86
2022-12-17T21:22:11.198Z,5.93
2022-12-17T21:25:02.148Z,5.86
2022-12-17T21:27:51.463Z,5.94
2022-12-17T21:30:40.892Z,5.79
2022-12-17T21:33:32.179Z,5.83
2022-12-17T21:36:22.940Z,5.58
2022-12-17T21:39:14.970Z,5.68
2022-12-17T21:42:22.023Z,5.67
2022-12-17T21:45:11.999Z,5.61
2022-12-17T21:48:01.448Z,5.62
2022-12-17T21:50:52.891Z,5.53
2022-12-17T21:53:43.775Z,5.50
2022-12-17T21:56:33.239Z,5.49
2022-12-17T21:59:22.754Z,5.40
2022-12-17T22:02:12.550Z,5.38
2022-12-17T22:05:02.252Z,5.32
2022-12-17T22:07:54.521Z,5.11
2022-12-17T22:10:47.679Z,5.16
2022-12-17T22:14:01.881Z,5.09
2022-12-17T22:16:56.229Z,5.03
2022-12-17T22:19:45.680Z,4.86
2022-12-17T22:22:35.373Z,5.01
2022-12-17T22:25:26.225Z,4.97
2022-12-17T22:28:15.678Z,4.90
2022-12-17T22:31:23.914Z,4.90
2022-12-17T22:35:02.521Z,4.81
2022-12-17T22:41:36.947Z,4.76
2022-12-17T22:44:33.646Z,4.68
2022-12-17T22:44:46.624Z,4.66
2022-12-17T22:46:55.359Z,4.60
2022-12-17T22:49:44.845Z,4.53
2022-12-17T22:52:34.159Z,4.45
2022-12-17T22:55:24.147Z,4.48
2022-12-17T22:58:15.251Z,4.39
2022-12-17T23:01:06.083Z,4.35
2022-12-17T23:03:56.759Z,4.35
2022-12-17T23:06:47.280Z,4.27
2022-12-17T23:09:36.675Z,4.24
2022-12-17T23:12:43.691Z,4.19
2022-12-17T23:15:38.399Z,4.13
2022-12-17T23:18:27.798Z,4.10
2022-12-17T23:21:20.410Z,4.03
2022-12-17T23:24:10.517Z,4.04
2022-12-17T23:27:00.104Z,3.97
2022-12-17T23:29:49.522Z,3.98
2022-12-17T23:32:40.495Z,3.92
2022-12-17T23:35:29.870Z,4.00
2022-12-17T23:38:19.188Z,3.96
2022-12-17T23:41:12.124Z,3.96
2022-12-17T23:44:01.924Z,4.06
2022-12-17T23:46:51.584Z,4.11
2022-12-17T23:49:42.344Z,4.17
2022-12-17T23:52:31.675Z,4.21
2022-12-17T23:55:21.104Z,4.23
2022-12-17T23:58:10.417Z,4.22
